Time;durP1;ratioP1;P1;durP2;ratioP2;P2;SDS_P1;SDS_P2;PMS_P1;PMS_P2;Temp;Humidity;BMP_temperature;BMP_pressure;BME280_temperature;BME280_humidity;BME280_pressure;Samples;Min_cycle;Max_cycle;Signal;HPM_P1;HPM_P2
2023/01/17 00:02:06;;;;;;;5.73;2.30;;;4.90;99.90;;;;;;5073344;28;20036;-70
2023/01/17 00:10:09;;;;;;;5.57;2.03;;;4.80;99.90;;;;;;5071109;28;20035;-69
2023/01/17 00:12:35;;;;;;;4.05;1.75;;;4.80;99.90;;;;;;5062720;28;20070;-70
2023/01/17 00:15:01;;;;;;;9.80;2.78;;;4.90;99.90;;;;;;5063337;28;20028;-70
2023/01/17 00:17:28;;;;;;;4.28;2.33;;;4.90;99.90;;;;;;5071199;28;20085;-70
2023/01/17 01:35:02;;;;;;;4.43;1.88;;;5.20;99.90;;;;;;5079712;28;20109;-68
2023/01/17 01:37:29;;;;;;;7.32;1.38;;;5.20;99.90;;;;;;5090163;28;20067;-69
2023/01/17 01:39:55;;;;;;;4.82;1.67;;;5.20;99.90;;;;;;5090166;28;20103;-70
2023/01/17 01:42:20;;;;;;;4.60;1.47;;;5.20;99.90;;;;;;5091868;28;20575;-67
2023/01/17 01:44:48;;;;;;;6.20;2.00;;;5.20;99.90;;;;;;5080335;28;20029;-66
2023/01/17 01:47:35;;;;;;;4.43;1.50;;;5.20;99.90;;;;;;5071375;28;20134;-68
2023/01/17 01:50:05;;;;;;;5.03;1.60;;;5.10;99.90;;;;;;5071892;28;20027;-68
2023/01/17 01:52:33;;;;;;;2.63;1.58;;;5.10;99.90;;;;;;5071168;28;20178;-69
2023/01/17 01:55:11;;;;;;;5.05;1.98;;;5.10;99.90;;;;;;5071284;28;20135;-66
2023/01/17 01:57:41;;;;;;;5.75;1.38;;;5.10;99.90;;;;;;5070436;28;20119;-68
2023/01/17 02:00:17;;;;;;;4.68;1.70;;;5.10;99.90;;;;;;5069761;28;20516;-69
2023/01/17 02:02:46;;;;;;;5.68;1.50;;;5.10;99.90;;;;;;5070450;28;20032;-68
2023/01/17 02:05:15;;;;;;;6.80;1.50;;;5.10;99.90;;;;;;5070336;28;20480;-67
2023/01/17 02:07:49;;;;;;;4.30;2.08;;;5.10;99.90;;;;;;5062635;28;20094;-67
2023/01/17 02:10:15;;;;;;;8.80;2.13;;;5.00;99.90;;;;;;5057131;28;20029;-68
2023/01/17 02:12:42;;;;;;;4.38;1.77;;;5.10;99.90;;;;;;5050598;28;20029;-69
2023/01/17 02:15:09;;;;;;;7.63;1.83;;;5.10;99.90;;;;;;5050034;28;20041;-67
2023/01/17 02:18:12;;;;;;;4.90;1.40;;;5.10;99.90;;;;;;5050599;28;20524;-70
2023/01/17 02:20:38;;;;;;;4.03;1.63;;;5.10;99.90;;;;;;5056849;28;20036;-70
2023/01/17 02:23:45;;;;;;;3.63;1.67;;;5.20;99.90;;;;;;5070210;28;20151;-70
2023/01/17 02:26:46;;;;;;;4.55;1.77;;;5.20;99.90;;;;;;5069836;28;20025;-69
2023/01/17 02:29:12;;;;;;;5.57;1.50;;;5.10;99.90;;;;;;5069929;28;20035;-69
2023/01/17 02:31:40;;;;;;;3.30;1.57;;;5.20;99.90;;;;;;5070161;28;20025;-70
2023/01/17 02:34:16;;;;;;;2.25;1.75;;;5.20;99.90;;;;;;5068605;28;20027;-70
2023/01/17 02:36:59;;;;;;;3.10;1.73;;;5.20;99.90;;;;;;5070368;28;20037;-70
2023/01/17 02:39:33;;;;;;;5.15;1.75;;;5.20;99.90;;;;;;5070728;28;20032;-71
2023/01/17 02:42:10;;;;;;;8.40;2.25;;;5.20;99.90;;;;;;5070456;28;20131;-65
2023/01/17 02:44:41;;;;;;;3.92;1.67;;;5.20;99.90;;;;;;5070288;28;20485;-66
2023/01/17 02:47:24;;;;;;;13.65;2.88;;;5.20;99.90;;;;;;5070508;28;20025;-67
2023/01/17 02:49:52;;;;;;;6.82;2.05;;;5.20;99.90;;;;;;5070265;28;20031;-66
2023/01/17 02:52:28;;;;;;;3.67;1.98;;;5.20;99.90;;;;;;5070013;28;20395;-67
2023/01/17 02:55:22;;;;;;;6.38;2.42;;;5.20;99.90;;;;;;5070513;28;20099;-66
2023/01/17 02:58:05;;;;;;;5.88;1.75;;;5.20;99.90;;;;;;5067372;28;20762;-67
2023/01/17 03:00:36;;;;;;;4.65;2.47;;;5.20;99.90;;;;;;5069285;28;20036;-69
2023/01/17 03:03:30;;;;;;;5.88;2.15;;;5.20;99.90;;;;;;5069171;28;20354;-69
2023/01/17 03:06:14;;;;;;;5.20;1.73;;;5.10;99.90;;;;;;5069840;28;20067;-69
2023/01/17 03:08:42;;;;;;;5.72;1.55;;;5.10;99.90;;;;;;5069414;28;20028;-70
2023/01/17 03:11:09;;;;;;;7.28;2.50;;;5.10;99.90;;;;;;5069859;28;20025;-70
2023/01/17 03:13:36;;;;;;;4.93;1.55;;;5.20;99.90;;;;;;5069736;28;20131;-70
2023/01/17 03:16:17;;;;;;;4.75;1.98;;;5.10;99.90;;;;;;5069389;28;20051;-70
2023/01/17 03:18:43;;;;;;;3.60;1.70;;;5.20;99.90;;;;;;5069470;28;20033;-70
2023/01/17 03:21:09;;;;;;;3.60;2.00;;;5.10;99.90;;;;;;5068904;28;20055;-70
2023/01/17 03:23:34;;;;;;;7.05;2.47;;;5.20;99.90;;;;;;5069379;28;20082;-69
2023/01/17 03:26:00;;;;;;;8.93;1.90;;;5.10;99.90;;;;;;5069625;28;20032;-70
2023/01/17 03:28:25;;;;;;;4.13;2.13;;;5.10;99.90;;;;;;5069971;28;20033;-69
2023/01/17 03:30:51;;;;;;;3.83;1.70;;;5.10;99.90;;;;;;5069569;28;20024;-68
2023/01/17 03:33:17;;;;;;;3.83;1.83;;;5.10;99.90;;;;;;5069062;28;20024;-69
2023/01/17 03:35:46;;;;;;;8.05;1.90;;;5.10;99.90;;;;;;5069099;28;20120;-69
2023/01/17 03:38:11;;;;;;;4.10;2.05;;;5.00;99.90;;;;;;5069150;28;20032;-70
2023/01/17 03:40:37;;;;;;;4.60;1.73;;;5.00;99.90;;;;;;5069302;28;20541;-70
2023/01/17 03:43:02;;;;;;;4.60;2.10;;;5.00;99.90;;;;;;5051003;28;20024;-71
2023/01/17 03:45:28;;;;;;;6.20;2.00;;;5.10;99.90;;;;;;5068932;28;20068;-71
2023/01/17 03:47:55;;;;;;;6.40;2.13;;;5.00;99.90;;;;;;5068513;28;20054;-68
2023/01/17 03:50:21;;;;;;;5.15;2.30;;;5.00;99.90;;;;;;5068663;28;20017;-68
2023/01/17 03:52:46;;;;;;;6.53;2.65;;;5.00;99.90;;;;;;5068846;28;20036;-70
2023/01/17 03:55:12;;;;;;;6.23;2.57;;;5.00;99.90;;;;;;5068854;28;20510;-70
2023/01/17 03:57:38;;;;;;;5.37;2.47;;;4.90;99.90;;;;;;5068841;28;20089;-66
2023/01/17 04:00:04;;;;;;;3.40;2.40;;;4.90;99.90;;;;;;5068692;28;20033;-67
2023/01/17 04:02:30;;;;;;;5.97;2.53;;;4.90;99.90;;;;;;5068579;28;20025;-70
2023/01/17 04:04:55;;;;;;;6.93;2.20;;;5.00;99.90;;;;;;5066570;28;20037;-69
2023/01/17 04:07:21;;;;;;;3.57;2.00;;;4.90;99.90;;;;;;5068922;28;20047;-67
2023/01/17 04:09:47;;;;;;;6.20;2.30;;;4.90;99.90;;;;;;5068426;28;20032;-67
2023/01/17 04:12:13;;;;;;;4.03;2.40;;;4.90;99.90;;;;;;5068761;28;20024;-68
2023/01/17 04:14:39;;;;;;;3.70;2.10;;;4.90;99.90;;;;;;5068490;28;20392;-69
2023/01/17 04:17:06;;;;;;;7.68;2.70;;;4.90;99.90;;;;;;5050496;28;20040;-69
2023/01/17 04:19:35;;;;;;;7.05;2.30;;;4.90;99.90;;;;;;5068340;28;20072;-70
2023/01/17 04:22:01;;;;;;;2.95;2.10;;;4.80;99.90;;;;;;5068553;28;20036;-70
2023/01/17 04:24:26;;;;;;;7.35;2.28;;;4.80;99.90;;;;;;5068548;28;20023;-69
2023/01/17 04:26:52;;;;;;;5.40;2.30;;;4.90;99.90;;;;;;5067406;28;20404;-67
2023/01/17 04:29:18;;;;;;;5.70;2.53;;;4.90;99.90;;;;;;5068426;28;20093;-66
2023/01/17 04:31:43;;;;;;;9.57;2.83;;;4.80;99.90;;;;;;5068261;28;20052;-66
2023/01/17 04:34:09;;;;;;;6.17;2.57;;;4.80;99.90;;;;;;5066963;28;20281;-69
2023/01/17 04:36:35;;;;;;;4.80;2.30;;;4.80;99.90;;;;;;5068108;28;20024;-72
2023/01/17 04:39:00;;;;;;;8.13;2.37;;;4.80;99.90;;;;;;5068709;28;20032;-70
2023/01/17 04:41:26;;;;;;;8.77;2.70;;;4.80;99.90;;;;;;5050117;28;20036;-71
2023/01/17 04:43:51;;;;;;;9.03;2.50;;;4.80;99.90;;;;;;5067820;28;20104;-70
2023/01/17 04:46:17;;;;;;;7.13;2.97;;;4.80;99.90;;;;;;5068149;28;20047;-70
2023/01/17 04:48:42;;;;;;;14.73;2.97;;;4.80;99.90;;;;;;5068070;28;20130;-70
2023/01/17 04:51:08;;;;;;;6.83;3.00;;;4.90;99.90;;;;;;5061756;28;20037;-70
2023/01/17 04:53:34;;;;;;;5.43;2.87;;;4.80;99.90;;;;;;5056451;28;20036;-71
2023/01/17 04:55:59;;;;;;;7.70;2.60;;;4.80;99.90;;;;;;5068800;28;20036;-66
2023/01/17 04:58:26;;;;;;;4.07;2.90;;;4.90;99.90;;;;;;5070938;28;20024;-66
2023/01/17 05:00:52;;;;;;;4.32;2.65;;;4.90;99.90;;;;;;5072126;28;20044;-65
2023/01/17 05:03:19;;;;;;;7.97;4.00;;;4.90;99.90;;;;;;5071792;28;20032;-65
2023/01/17 05:05:44;;;;;;;6.45;3.60;;;4.90;99.90;;;;;;5072190;28;20029;-66
2023/01/17 05:08:10;;;;;;;7.13;3.30;;;4.80;99.90;;;;;;5070697;28;20031;-66
2023/01/17 05:10:36;;;;;;;6.87;3.13;;;4.90;99.90;;;;;;5072151;28;20086;-67
2023/01/17 05:13:01;;;;;;;7.87;3.40;;;4.90;99.90;;;;;;5072496;28;20271;-67
2023/01/17 05:15:27;;;;;;;7.88;3.20;;;4.90;99.90;;;;;;5071671;28;20607;-68
2023/01/17 05:17:53;;;;;;;5.20;2.70;;;4.90;99.90;;;;;;5071928;28;20043;-69
2023/01/17 05:20:21;;;;;;;4.70;2.70;;;4.80;99.90;;;;;;5071603;28;20553;-70
2023/01/17 05:22:54;;;;;;;7.13;2.55;;;4.90;99.90;;;;;;5071419;28;20544;-69
2023/01/17 05:25:22;;;;;;;6.28;3.70;;;4.80;99.90;;;;;;5071353;28;20086;-70
2023/01/17 05:27:48;;;;;;;4.60;2.72;;;4.90;99.90;;;;;;5071672;28;20683;-71
2023/01/17 05:30:13;;;;;;;5.13;2.67;;;4.90;99.90;;;;;;5071615;28;20021;-70
2023/01/17 05:32:40;;;;;;;8.77;3.15;;;4.90;99.90;;;;;;5071149;28;20771;-70
2023/01/17 05:35:06;;;;;;;;;;;4.90;99.90;;;;;;5071719;28;20135;-70
2023/01/17 05:37:31;;;;;;;7.22;2.97;;;4.90;99.90;;;;;;5071782;28;20020;-69
2023/01/17 05:39:57;;;;;;;4.87;2.53;;;4.80;99.90;;;;;;5070463;28;20094;-71
2023/01/17 05:42:22;;;;;;;8.07;3.07;;;4.80;99.90;;;;;;5071181;28;20586;-72
2023/01/17 05:44:48;;;;;;;9.37;2.77;;;4.70;99.90;;;;;;5071332;28;20056;-70
2023/01/17 05:47:13;;;;;;;8.10;3.07;;;4.70;99.90;;;;;;5071305;28;20032;-70
2023/01/17 05:49:39;;;;;;;3.83;2.47;;;4.70;99.90;;;;;;5069912;28;20031;-70
2023/01/17 05:52:04;;;;;;;8.80;3.20;;;4.60;99.90;;;;;;5067573;28;20416;-70
2023/01/17 05:54:30;;;;;;;5.43;2.73;;;4.60;99.90;;;;;;5069741;28;20029;-72
2023/01/17 05:56:56;;;;;;;7.63;2.97;;;4.50;99.90;;;;;;5069381;28;20468;-70
2023/01/17 05:59:21;;;;;;;6.27;2.50;;;4.60;99.90;;;;;;5069832;28;20373;-70
2023/01/17 06:01:47;;;;;;;4.73;2.27;;;4.50;99.90;;;;;;5069985;28;20240;-71
2023/01/17 06:04:13;;;;;;;8.77;3.27;;;4.50;99.90;;;;;;5069866;28;20036;-69
2023/01/17 06:06:38;;;;;;;7.23;2.70;;;4.40;99.90;;;;;;5070226;28;20037;-69
2023/01/17 06:09:04;;;;;;;10.57;2.97;;;4.30;99.90;;;;;;5067745;28;20071;-66
2023/01/17 06:11:29;;;;;;;8.48;3.30;;;4.30;99.90;;;;;;5069943;28;20025;-72
2023/01/17 06:13:55;;;;;;;6.50;3.30;;;4.20;99.90;;;;;;5069678;28;20450;-72
2023/01/17 06:16:21;;;;;;;8.45;3.47;;;4.20;99.90;;;;;;5069995;28;20040;-71
2023/01/17 06:18:47;;;;;;;9.83;3.80;;;4.20;99.90;;;;;;5069329;28;20033;-70
2023/01/17 06:21:12;;;;;;;5.97;3.50;;;4.20;99.90;;;;;;5066416;28;20063;-71
2023/01/17 06:23:38;;;;;;;4.00;2.63;;;4.20;99.90;;;;;;5069757;28;20090;-68
2023/01/17 06:26:03;;;;;;;7.40;3.27;;;4.20;99.90;;;;;;5070384;28;20035;-69
2023/01/17 06:28:30;;;;;;;9.07;3.63;;;4.20;99.90;;;;;;5069765;28;20017;-71
2023/01/17 06:30:55;;;;;;;5.07;3.13;;;4.20;99.90;;;;;;5066882;28;20040;-68
2023/01/17 06:33:21;;;;;;;8.37;3.37;;;4.20;99.90;;;;;;5068138;28;20031;-71
2023/01/17 06:35:48;;;;;;;6.93;2.87;;;4.20;99.90;;;;;;5051739;28;20025;-69
2023/01/17 06:38:14;;;;;;;4.03;2.80;;;4.20;99.90;;;;;;5062566;28;20480;-72
2023/01/17 06:40:39;;;;;;;6.47;3.67;;;4.20;99.90;;;;;;5067508;28;20134;-68
2023/01/17 06:43:05;;;;;;;10.87;3.03;;;4.10;99.90;;;;;;5049395;28;20541;-70
2023/01/17 06:45:34;;;;;;;5.75;3.13;;;4.00;99.90;;;;;;5069069;28;20032;-69
2023/01/17 06:48:03;;;;;;;5.15;2.92;;;4.00;99.90;;;;;;5066739;28;20040;-71
2023/01/17 06:50:30;;;;;;;6.95;2.95;;;4.00;99.90;;;;;;5066671;28;20369;-67
2023/01/17 06:52:58;;;;;;;5.93;3.20;;;3.90;99.90;;;;;;5068357;28;20089;-70
2023/01/17 06:55:27;;;;;;;5.05;3.30;;;3.90;99.90;;;;;;5068284;28;20028;-70
2023/01/17 06:57:58;;;;;;;7.85;3.58;;;3.80;99.90;;;;;;5074706;28;20029;-68
2023/01/17 07:00:24;;;;;;;6.70;2.90;;;3.90;99.90;;;;;;5069379;28;20107;-68
2023/01/17 07:02:50;;;;;;;;;;;3.90;99.90;;;;;;5069706;28;20025;-71
2023/01/17 07:05:16;;;;;;;8.60;2.97;;;3.90;99.90;;;;;;5069092;28;20002;-71
2023/01/17 07:07:43;;;;;;;4.25;2.38;;;3.80;99.90;;;;;;5067872;28;20123;-71
2023/01/17 07:10:11;;;;;;;9.77;3.47;;;3.70;99.90;;;;;;5068788;28;20032;-74
2023/01/17 07:12:37;;;;;;;6.97;3.22;;;3.60;99.90;;;;;;5063576;28;20094;-67
2023/01/17 07:15:03;;;;;;;6.40;2.73;;;3.60;99.90;;;;;;5069337;28;20028;-66
2023/01/17 07:17:29;;;;;;;6.13;2.83;;;3.70;99.90;;;;;;5064800;28;20029;-66
2023/01/17 07:19:54;;;;;;;6.90;2.93;;;3.60;99.90;;;;;;5066114;28;20051;-67
2023/01/17 07:22:20;;;;;;;7.47;3.13;;;3.60;99.90;;;;;;5078167;28;20028;-66
2023/01/17 07:24:46;;;;;;;11.40;3.10;;;3.60;99.90;;;;;;5063989;28;20028;-67
2023/01/17 07:27:11;;;;;;;7.57;3.23;;;3.60;99.90;;;;;;5065834;28;20080;-66
2023/01/17 07:29:37;;;;;;;6.77;3.27;;;3.50;99.90;;;;;;5068096;28;20082;-70
2023/01/17 07:32:02;;;;;;;3.90;2.77;;;3.70;99.90;;;;;;5067687;28;20037;-71
2023/01/17 07:34:28;;;;;;;5.33;3.03;;;3.70;99.90;;;;;;5068019;28;20524;-70
2023/01/17 07:36:54;;;;;;;5.23;2.60;;;3.70;99.90;;;;;;5068614;28;20041;-67
2023/01/17 07:39:20;;;;;;;6.27;3.33;;;3.70;99.90;;;;;;5068703;28;20036;-65
2023/01/17 07:41:46;;;;;;;4.25;2.80;;;3.80;99.90;;;;;;5083470;28;20115;-65
2023/01/17 07:44:12;;;;;;;8.05;3.75;;;3.70;99.90;;;;;;5068476;28;20035;-65
2023/01/17 07:46:38;;;;;;;6.50;3.67;;;3.80;99.90;;;;;;5068371;28;20094;-65
2023/01/17 07:49:04;;;;;;;7.82;3.75;;;3.80;99.90;;;;;;5068636;28;20032;-66
2023/01/17 07:51:30;;;;;;;7.35;4.13;;;3.80;99.90;;;;;;5066477;28;20548;-66
2023/01/17 07:53:55;;;;;;;11.93;4.00;;;3.80;99.90;;;;;;5066826;28;20082;-67
2023/01/17 07:56:21;;;;;;;7.80;3.97;;;3.90;99.90;;;;;;5071570;28;20503;-67
2023/01/17 07:58:47;;;;;;;9.23;3.80;;;3.90;99.90;;;;;;5067941;28;20016;-72
2023/01/17 08:01:14;;;;;;;8.68;3.83;;;3.90;99.90;;;;;;5068462;28;20020;-65
2023/01/17 08:03:40;;;;;;;9.13;3.90;;;4.00;99.90;;;;;;5068254;28;20029;-67
2023/01/17 08:06:28;;;;;;;7.30;4.07;;;4.00;99.90;;;;;;5068382;28;20059;-67
2023/01/17 08:08:55;;;;;;;8.73;5.35;;;4.00;99.90;;;;;;5068478;28;20048;-66
2023/01/17 08:11:21;;;;;;;5.70;3.47;;;4.10;99.90;;;;;;5068318;28;20056;-65
2023/01/17 08:13:47;;;;;;;8.70;4.30;;;4.20;99.90;;;;;;5051692;28;20074;-68
2023/01/17 08:16:14;;;;;;;6.40;4.40;;;4.20;99.90;;;;;;5067824;28;20074;-65
2023/01/17 08:18:40;;;;;;;6.53;3.83;;;4.30;99.90;;;;;;5065136;28;20111;-64
2023/01/17 08:21:15;;;;;;;6.90;4.40;;;4.10;99.90;;;;;;5073048;28;20028;-67
2023/01/17 08:23:51;;;;;;;9.57;4.85;;;4.20;99.90;;;;;;5045397;28;20071;-65
2023/01/17 08:26:21;;;;;;;11.13;4.57;;;4.20;99.90;;;;;;5067565;28;20032;-65
2023/01/17 08:28:55;;;;;;;6.35;3.85;;;4.10;99.90;;;;;;5068591;28;20021;-65
2023/01/17 08:31:21;;;;;;;7.82;4.50;;;4.10;99.90;;;;;;5065763;28;20024;-66
2023/01/17 08:33:46;;;;;;;5.97;3.85;;;4.10;99.90;;;;;;5065657;28;20024;-64
2023/01/17 08:36:12;;;;;;;10.03;4.03;;;4.10;99.90;;;;;;5067498;28;20047;-64
2023/01/17 08:38:38;;;;;;;9.63;4.60;;;4.30;99.90;;;;;;5049913;28;20450;-65
2023/01/17 08:41:03;;;;;;;9.15;4.28;;;4.40;99.90;;;;;;5067912;28;20040;-65
2023/01/17 08:43:29;;;;;;;8.67;2.90;;;4.50;99.90;;;;;;5067425;28;20038;-65
2023/01/17 08:45:55;;;;;;;4.43;2.63;;;4.60;99.90;;;;;;5067357;28;20259;-67
2023/01/17 08:48:23;;;;;;;7.77;2.67;;;4.70;99.90;;;;;;5067354;28;20369;-65
2023/01/17 08:50:48;;;;;;;3.60;1.58;;;4.90;99.90;;;;;;5068160;28;20028;-65
2023/01/17 08:53:15;;;;;;;1.65;1.35;;;5.00;99.90;;;;;;5065848;28;20116;-65
2023/01/17 08:55:40;;;;;;;;;;;5.20;99.90;;;;;;5062702;28;20021;-65
2023/01/17 08:58:06;;;;;;;4.88;1.60;;;5.20;99.90;;;;;;5065326;28;19922;-68
2023/01/17 09:00:33;;;;;;;5.05;1.70;;;5.40;99.90;;;;;;5061705;28;20047;-65
2023/01/17 09:03:00;;;;;;;3.33;1.60;;;5.40;99.90;;;;;;5065290;28;20048;-64
2023/01/17 09:05:26;;;;;;;2.45;1.42;;;5.50;99.90;;;;;;5067049;28;20082;-67
2023/01/17 09:07:53;;;;;;;1.45;1.30;;;5.50;99.90;;;;;;5064822;28;20040;-65
2023/01/17 09:10:18;;;;;;;5.03;1.40;;;5.60;99.90;;;;;;5064139;28;20543;-64
2023/01/17 09:12:44;;;;;;;2.13;1.40;;;5.60;99.90;;;;;;5062992;28;20028;-68
2023/01/17 09:15:13;;;;;;;1.27;1.17;;;5.60;99.90;;;;;;5063414;28;20500;-66
2023/01/17 09:17:38;;;;;;;1.95;1.40;;;5.60;99.90;;;;;;5065547;28;20041;-66
2023/01/17 09:20:05;;;;;;;2.17;1.37;;;5.60;99.90;;;;;;5066162;28;20016;-65
2023/01/17 09:22:30;;;;;;;1.23;1.13;;;5.70;99.90;;;;;;5065836;28;20109;-65
2023/01/17 09:24:56;;;;;;;2.10;1.17;;;5.70;99.90;;;;;;5066741;28;20049;-65
2023/01/17 09:27:22;;;;;;;1.97;1.33;;;5.70;99.90;;;;;;5067073;28;20027;-65
2023/01/17 09:29:47;;;;;;;2.27;1.40;;;5.80;99.90;;;;;;5067097;28;20405;-64
2023/01/17 09:32:15;;;;;;;1.27;1.00;;;5.80;99.90;;;;;;5064869;28;20136;-65
2023/01/17 09:34:41;;;;;;;2.05;1.02;;;5.90;99.90;;;;;;5060415;28;20029;-66
2023/01/17 09:37:07;;;;;;;1.20;1.00;;;5.90;99.90;;;;;;5065512;28;20049;-70
2023/01/17 09:39:32;;;;;;;1.83;1.03;;;6.00;99.90;;;;;;5065226;28;20301;-69
2023/01/17 09:42:23;;;;;;;2.67;1.40;;;6.10;99.90;;;;;;5065487;28;20060;-64
2023/01/17 09:44:50;;;;;;;1.92;1.00;;;6.20;99.90;;;;;;5068973;28;20031;-64
2023/01/17 09:47:32;;;;;;;2.10;1.27;;;6.20;99.90;;;;;;5070049;28;20020;-64
2023/01/17 09:50:07;;;;;;;1.63;0.90;;;6.30;99.90;;;;;;5069652;28;20036;-64
2023/01/17 09:52:33;;;;;;;1.23;1.00;;;6.30;99.90;;;;;;5068326;28;20258;-65
2023/01/17 09:54:58;;;;;;;1.90;1.23;;;6.30;99.90;;;;;;5067988;28;20554;-65
2023/01/17 09:57:42;;;;;;;3.63;1.03;;;6.40;99.90;;;;;;5068173;28;20148;-65
2023/01/17 10:00:14;;;;;;;2.22;1.00;;;6.40;99.90;;;;;;5069348;28;20029;-67
2023/01/17 10:03:07;;;;;;;1.77;1.20;;;6.50;99.90;;;;;;5069634;28;20035;-69
2023/01/17 10:05:48;;;;;;;4.28;1.55;;;6.60;99.90;;;;;;5070015;28;20488;-65
2023/01/17 10:08:30;;;;;;;1.95;1.38;;;6.80;99.90;;;;;;5052020;28;20047;-73
2023/01/17 10:11:12;;;;;;;1.55;1.02;;;6.90;99.90;;;;;;5070337;28;20028;-64
2023/01/17 10:13:49;;;;;;;2.55;1.10;;;6.80;99.90;;;;;;5069850;28;20039;-66
2023/01/17 10:16:44;;;;;;;1.20;1.00;;;7.00;99.90;;;;;;5070345;28;20119;-71
2023/01/17 10:19:47;;;;;;;2.28;1.65;;;6.90;99.90;;;;;;5070228;28;20028;-68
2023/01/17 10:22:37;;;;;;;4.80;1.08;;;7.00;99.90;;;;;;5049908;28;20036;-64
2023/01/17 10:25:19;;;;;;;1.20;1.10;;;7.40;99.90;;;;;;5069602;28;20054;-65
2023/01/17 10:27:50;;;;;;;1.50;1.13;;;7.10;99.90;;;;;;5076186;28;20144;-65
2023/01/17 10:30:21;;;;;;;2.10;1.42;;;7.10;99.90;;;;;;5090159;28;20034;-64
2023/01/17 10:32:48;;;;;;;1.92;1.38;;;6.90;99.90;;;;;;5089865;28;20024;-64
2023/01/17 10:35:20;;;;;;;1.27;1.13;;;7.00;99.90;;;;;;5090239;28;20024;-65
2023/01/17 10:37:47;;;;;;;2.47;1.17;;;7.10;99.90;;;;;;5089733;28;20415;-65
2023/01/17 10:40:21;;;;;;;3.80;1.15;;;7.20;99.90;;;;;;5090064;28;20024;-65
2023/01/17 10:43:01;;;;;;;2.92;1.38;;;7.30;99.90;;;;;;5074798;28;20029;-66
2023/01/17 10:45:38;;;;;;;1.60;1.27;;;7.20;99.90;;;;;;5067261;28;20082;-66
2023/01/17 10:48:14;;;;;;;2.83;1.20;;;7.20;99.90;;;;;;5068469;28;20046;-66
2023/01/17 10:50:59;;;;;;;1.48;1.20;;;7.10;99.90;;;;;;5065904;28;20043;-66
2023/01/17 10:53:36;;;;;;;2.40;1.13;;;7.10;99.90;;;;;;5064119;28;20369;-67
2023/01/17 10:56:02;;;;;;;6.07;1.27;;;7.10;99.90;;;;;;5065881;28;20089;-67
2023/01/17 10:58:28;;;;;;;1.15;1.00;;;7.10;99.90;;;;;;5067982;28;20068;-69
2023/01/17 11:01:06;;;;;;;1.07;0.97;;;7.10;99.90;;;;;;5066438;28;20029;-65
2023/01/17 11:03:33;;;;;;;2.88;1.25;;;7.10;99.90;;;;;;5062811;28;20427;-70
2023/01/17 11:06:21;;;;;;;2.78;1.23;;;7.20;99.90;;;;;;5064082;28;20017;-69
2023/01/17 11:08:58;;;;;;;1.45;1.20;;;7.50;99.90;;;;;;5063107;28;20025;-66
2023/01/17 11:11:35;;;;;;;1.13;1.00;;;7.50;99.90;;;;;;5058509;28;20028;-67
2023/01/17 11:14:05;;;;;;;2.10;1.42;;;7.60;99.90;;;;;;5060026;28;20021;-67
2023/01/17 11:16:31;;;;;;;2.15;1.10;;;8.10;99.90;;;;;;5067892;28;20120;-68
2023/01/17 11:19:17;;;;;;;3.28;1.00;;;8.00;99.90;;;;;;5069151;28;20149;-67
2023/01/17 11:22:03;;;;;;;3.30;1.20;;;8.10;99.90;;;;;;5068100;28;20025;-65
2023/01/17 11:24:52;;;;;;;3.70;1.27;;;8.20;99.90;;;;;;5068040;28;20543;-66
2023/01/17 11:27:26;;;;;;;2.28;1.45;;;8.10;99.90;;;;;;5071260;28;20024;-67
2023/01/17 11:30:24;;;;;;;6.50;1.35;;;7.80;99.90;;;;;;5065332;28;20360;-66
2023/01/17 11:32:52;;;;;;;1.98;1.40;;;7.70;99.90;;;;;;5043864;28;20496;-66
2023/01/17 11:35:24;;;;;;;1.90;1.25;;;7.90;99.90;;;;;;5048788;28;20024;-66
2023/01/17 11:38:10;;;;;;;2.78;1.30;;;7.90;99.90;;;;;;5066035;28;20075;-68
2023/01/17 11:40:43;;;;;;;2.33;1.33;;;8.00;99.90;;;;;;5061033;28;20041;-66
2023/01/17 11:43:13;;;;;;;1.88;1.02;;;8.00;99.90;;;;;;5065832;28;20016;-65
2023/01/17 11:45:39;;;;;;;3.28;1.30;;;8.00;99.90;;;;;;5048631;28;20450;-66
2023/01/17 11:48:08;;;;;;;;;;;8.00;99.90;;;;;;5070376;28;20024;-66
2023/01/17 11:50:37;;;;;;;1.52;0.93;;;8.20;99.90;;;;;;5067954;28;19943;-66
2023/01/17 11:53:15;;;;;;;3.58;1.77;;;8.30;99.90;;;;;;5067039;28;20508;-66
2023/01/17 11:56:00;;;;;;;1.17;0.80;;;8.20;99.90;;;;;;5064337;28;20021;-67
2023/01/17 11:58:27;;;;;;;1.08;0.98;;;8.10;99.90;;;;;;5064649;28;20590;-65
2023/01/17 12:01:16;;;;;;;;;;;8.00;99.90;;;;;;5067927;28;20032;-66
2023/01/17 12:04:01;;;;;;;9.98;1.20;;;8.00;99.90;;;;;;5047649;28;19909;-68
2023/01/17 12:06:57;;;;;;;3.53;1.17;;;8.10;99.90;;;;;;5066860;28;20071;-66
2023/01/17 12:09:59;;;;;;;2.90;1.30;;;8.10;99.90;;;;;;5066157;28;20535;-67
2023/01/17 12:15:44;;;;;;;1.45;1.20;;;8.10;99.90;;;;;;5066860;28;20078;-67
2023/01/17 12:18:32;;;;;;;1.20;1.10;;;8.10;99.90;;;;;;5067833;28;20056;-66
2023/01/17 12:21:09;;;;;;;11.45;2.15;;;8.10;99.90;;;;;;5067278;28;20153;-67
2023/01/17 12:23:55;;;;;;;1.85;1.15;;;8.20;99.90;;;;;;5064567;28;20032;-68
2023/01/17 12:26:34;;;;;;;3.35;1.10;;;8.20;99.90;;;;;;5059964;28;20083;-67
2023/01/17 12:29:22;;;;;;;1.70;1.33;;;8.30;99.90;;;;;;5063970;28;20552;-66
2023/01/17 12:32:21;;;;;;;2.50;1.35;;;8.40;99.90;;;;;;5042219;28;20443;-67
2023/01/17 12:35:03;;;;;;;1.92;1.20;;;8.40;99.90;;;;;;5065303;28;20036;-68
2023/01/17 12:37:35;;;;;;;6.28;1.20;;;8.50;99.90;;;;;;5062380;28;20041;-66
2023/01/17 12:40:24;;;;;;;1.15;0.90;;;8.60;99.90;;;;;;5063527;28;20016;-67
2023/01/17 12:43:00;;;;;;;7.75;1.45;;;8.60;99.90;;;;;;5063989;28;20024;-68
2023/01/17 12:45:33;;;;;;;1.53;0.87;;;8.70;99.90;;;;;;5063860;28;20511;-72
2023/01/17 12:48:08;;;;;;;1.95;1.33;;;8.80;99.90;;;;;;5066260;28;20518;-66
2023/01/17 12:50:40;;;;;;;3.60;1.20;;;8.80;99.90;;;;;;5065587;28;20052;-66
2023/01/17 12:53:09;;;;;;;2.35;1.00;;;8.80;99.90;;;;;;5064569;28;20557;-68
2023/01/17 12:55:40;;;;;;;5.47;1.42;;;8.70;99.90;;;;;;5064089;28;20464;-67
2023/01/17 12:58:13;;;;;;;8.55;1.05;;;8.80;99.60;;;;;;5066153;28;20120;-68
2023/01/17 13:00:39;;;;;;;1.50;1.20;;;8.70;99.40;;;;;;5069723;28;20043;-66
2023/01/17 13:03:28;;;;;;;11.70;1.60;;;8.80;99.80;;;;;;5071673;28;20028;-68
2023/01/17 13:05:56;;;;;;;3.28;1.20;;;8.80;99.90;;;;;;5087286;28;20032;-66
2023/01/17 13:08:39;;;;;;;3.10;1.40;;;8.80;99.90;;;;;;5081610;28;20020;-67
2023/01/17 13:11:05;;;;;;;1.13;1.00;;;8.90;99.50;;;;;;5066993;28;20024;-66
2023/01/17 13:13:31;;;;;;;1.53;1.13;;;8.80;99.90;;;;;;5066304;28;20040;-67
2023/01/17 13:16:14;;;;;;;3.88;1.63;;;8.90;99.10;;;;;;5067058;28;20033;-68
2023/01/17 13:18:45;;;;;;;3.33;1.30;;;9.10;99.40;;;;;;5068776;28;20033;-68
2023/01/17 13:21:30;;;;;;;1.40;1.15;;;9.30;99.40;;;;;;5088879;28;20035;-67
2023/01/17 13:24:08;;;;;;;1.35;1.10;;;9.30;97.00;;;;;;5071977;28;20024;-66
2023/01/17 13:26:54;;;;;;;1.55;1.20;;;9.40;97.30;;;;;;5070253;28;20036;-67
2023/01/17 13:29:29;;;;;;;4.70;1.08;;;9.40;98.60;;;;;;5084630;28;20024;-68
2023/01/17 13:32:09;;;;;;;4.28;1.38;;;9.40;98.90;;;;;;5069883;28;20085;-68
2023/01/17 13:35:00;;;;;;;1.67;1.30;;;9.30;99.50;;;;;;5070746;28;20115;-70
2023/01/17 13:37:44;;;;;;;1.73;1.40;;;9.10;99.60;;;;;;5050553;28;20050;-68
2023/01/17 13:40:25;;;;;;;2.72;1.80;;;9.10;99.90;;;;;;5070660;28;20673;-70
2023/01/17 13:42:50;;;;;;;1.40;1.15;;;9.00;99.40;;;;;;5067336;28;20047;-71
2023/01/17 13:45:29;;;;;;;2.73;1.50;;;8.90;99.10;;;;;;5071997;28;20104;-67
2023/01/17 13:48:17;;;;;;;5.47;1.30;;;8.90;99.60;;;;;;5081830;28;20106;-67
2023/01/17 13:50:47;;;;;;;;;;;8.70;99.20;;;;;;5090872;28;20129;-67
2023/01/17 13:53:31;;;;;;;1.45;1.17;;;8.70;99.50;;;;;;5066714;28;19904;-67
2023/01/17 13:56:12;;;;;;;2.72;1.20;;;8.70;99.90;;;;;;5070364;28;20021;-67
2023/01/17 13:59:01;;;;;;;2.72;1.33;;;8.80;99.30;;;;;;5070480;28;20038;-67
2023/01/17 14:01:38;;;;;;;2.38;1.40;;;8.80;99.20;;;;;;5086516;28;20510;-67
2023/01/17 14:04:05;;;;;;;;;;;8.90;99.20;;;;;;5070527;28;20035;-67
2023/01/17 14:06:44;;;;;;;6.07;1.30;;;9.00;98.50;;;;;;5069686;28;19923;-69
2023/01/17 14:09:31;;;;;;;6.25;1.20;;;9.00;99.60;;;;;;5064569;28;20275;-66
2023/01/17 14:12:11;;;;;;;4.03;1.30;;;9.10;98.20;;;;;;5062948;28;20123;-68
2023/01/17 14:14:39;;;;;;;6.82;1.45;;;9.10;97.60;;;;;;5068230;28;20029;-68
2023/01/17 14:17:26;;;;;;;7.53;1.73;;;9.10;97.40;;;;;;5066902;28;20029;-68
2023/01/17 14:19:59;;;;;;;2.47;1.30;;;9.10;97.50;;;;;;5067296;28;20128;-67
2023/01/17 14:22:47;;;;;;;1.58;1.33;;;9.10;97.60;;;;;;5068189;28;20025;-67
2023/01/17 14:25:16;;;;;;;3.67;1.73;;;9.10;97.20;;;;;;5069007;28;20115;-67
2023/01/17 14:27:41;;;;;;;3.22;1.65;;;9.00;97.70;;;;;;5067220;28;20032;-66
2023/01/17 14:30:16;;;;;;;3.60;1.60;;;9.10;98.50;;;;;;5067381;28;20031;-66
2023/01/17 14:33:07;;;;;;;2.13;1.63;;;9.10;99.20;;;;;;5068097;28;20395;-68
2023/01/17 14:35:37;;;;;;;3.30;1.40;;;9.10;98.00;;;;;;5068144;28;20020;-67
2023/01/17 14:38:20;;;;;;;2.08;1.58;;;9.10;98.40;;;;;;5068410;28;20036;-67
2023/01/17 14:40:55;;;;;;;2.80;1.45;;;9.10;97.70;;;;;;5068365;28;20033;-69
2023/01/17 14:43:23;;;;;;;3.25;1.55;;;9.00;97.20;;;;;;5069723;28;20024;-69
2023/01/17 14:45:59;;;;;;;4.60;1.73;;;9.00;97.80;;;;;;5069904;28;20036;-69